createdAt,value
2019-05-10T00:01:44.449Z,14.33
2019-05-10T00:04:31.304Z,19.15
2019-05-10T00:07:18.234Z,17.80
2019-05-10T00:09:46.573Z,19.00
2019-05-10T00:12:17.267Z,15.23
2019-05-10T00:14:47.865Z,20.57
2019-05-10T00:17:18.315Z,19.00
2019-05-10T00:19:47.291Z,16.25
2019-05-10T00:22:16.393Z,18.12
2019-05-10T00:25:00.859Z,13.50
2019-05-10T00:27:16.334Z,19.50
2019-05-10T00:29:45.468Z,21.60
2019-05-10T00:32:14.857Z,17.82
2019-05-10T00:34:43.819Z,17.82
2019-05-10T00:37:12.939Z,19.50
2019-05-10T00:39:42.166Z,14.35
2019-05-10T00:42:11.154Z,16.12
2019-05-10T00:44:40.173Z,19.35
2019-05-10T00:47:09.154Z,13.68
2019-05-10T00:49:38.110Z,16.80
2019-05-10T00:52:07.244Z,14.98
2019-05-10T00:54:36.185Z,15.10
2019-05-10T00:57:05.224Z,17.27
2019-05-10T00:59:34.279Z,19.50
2019-05-10T01:02:03.318Z,17.75
2019-05-10T01:04:32.455Z,24.77
2019-05-10T01:07:01.421Z,19.80
2019-05-10T01:09:30.373Z,15.88
2019-05-10T01:11:59.363Z,13.60
2019-05-10T01:14:28.322Z,16.67
2019-05-10T01:16:57.376Z,14.55
2019-05-10T01:19:26.409Z,13.30
2019-05-10T01:21:55.416Z,18.77
2019-05-10T01:24:24.380Z,17.75
2019-05-10T01:26:53.324Z,20.65
2019-05-10T01:29:22.299Z,18.75
2019-05-10T01:31:51.259Z,20.92
2019-05-10T01:34:20.263Z,17.90
2019-05-10T01:36:49.301Z,18.42
2019-05-10T01:39:18.253Z,16.57
2019-05-10T01:41:47.230Z,19.12
2019-05-10T01:44:16.186Z,19.15
2019-05-10T01:46:45.559Z,21.80
2019-05-10T01:49:14.796Z,20.82
2019-05-10T01:51:43.759Z,18.42
2019-05-10T01:54:12.783Z,16.27
2019-05-10T01:56:41.747Z,15.00
2019-05-10T01:59:10.741Z,18.73
2019-05-10T02:01:40.050Z,16.97
2019-05-10T02:04:09.006Z,18.75
2019-05-10T02:06:37.980Z,20.00
2019-05-10T02:09:07.790Z,20.92
2019-05-10T02:11:36.870Z,16.62
2019-05-10T02:14:06.036Z,19.20
2019-05-10T02:16:34.999Z,20.00
2019-05-10T02:19:04.104Z,19.15
2019-05-10T02:21:33.067Z,22.22
2019-05-10T02:24:02.080Z,21.42
2019-05-10T02:26:31.095Z,20.05
2019-05-10T02:29:00.045Z,22.32
2019-05-10T02:31:29.026Z,24.67
2019-05-10T02:33:57.973Z,17.40
2019-05-10T02:36:26.968Z,17.87
2019-05-10T02:38:55.937Z,21.00
2019-05-10T02:41:24.899Z,21.62
2019-05-10T02:43:53.881Z,19.23
2019-05-10T02:46:22.911Z,20.43
2019-05-10T02:48:51.905Z,16.27
2019-05-10T02:51:20.864Z,19.47
2019-05-10T02:53:49.823Z,19.15
2019-05-10T02:56:30.402Z,17.30
2019-05-10T02:58:52.811Z,21.35
2019-05-10T03:01:25.399Z,23.70
2019-05-10T03:03:56.423Z,17.82
2019-05-10T03:06:28.389Z,19.92
2019-05-10T03:08:57.622Z,24.40
2019-05-10T03:11:29.932Z,21.42
2019-05-10T03:14:02.076Z,22.87
2019-05-10T03:16:34.176Z,25.17
2019-05-10T03:19:04.304Z,23.98
2019-05-10T03:21:36.353Z,26.42
2019-05-10T03:24:05.356Z,27.13
2019-05-10T03:26:50.478Z,23.55
2019-05-10T03:29:06.178Z,26.02
2019-05-10T03:31:35.599Z,28.00
2019-05-10T03:34:04.716Z,23.47
2019-05-10T03:36:34.033Z,26.42
2019-05-10T03:39:03.413Z,23.80
2019-05-10T03:41:32.766Z,26.65
2019-05-10T03:44:02.075Z,26.05
2019-05-10T03:46:31.097Z,25.97
2019-05-10T03:49:00.129Z,22.00
2019-05-10T03:51:29.170Z,22.80
2019-05-10T03:53:58.209Z,24.63
2019-05-10T03:56:29.840Z,24.55
2019-05-10T03:58:57.918Z,25.75
2019-05-10T04:01:26.982Z,26.07
2019-05-10T04:03:56.118Z,27.75
2019-05-10T04:06:25.088Z,28.40
2019-05-10T04:08:54.788Z,27.20
2019-05-10T04:11:23.743Z,32.17
2019-05-10T04:13:52.702Z,28.35
2019-05-10T04:16:21.756Z,36.57
2019-05-10T04:18:50.745Z,33.23
2019-05-10T04:21:19.789Z,31.75
2019-05-10T04:23:48.755Z,33.78
2019-05-10T04:26:17.801Z,32.20
2019-05-10T04:28:46.852Z,32.75
2019-05-10T04:31:15.899Z,31.73
2019-05-10T04:33:44.972Z,34.08
2019-05-10T04:36:14.208Z,32.08
2019-05-10T04:38:43.246Z,31.20
2019-05-10T04:41:12.312Z,32.17
2019-05-10T04:43:41.360Z,28.00
2019-05-10T04:46:10.463Z,30.65
2019-05-10T04:48:39.499Z,23.27
2019-05-10T04:51:08.543Z,23.15
2019-05-10T04:53:37.593Z,27.70
2019-05-10T04:56:06.569Z,23.00
2019-05-10T04:58:35.638Z,23.95
2019-05-10T05:01:04.669Z,24.37
2019-05-10T05:03:33.705Z,30.68
2019-05-10T05:06:02.720Z,31.40
2019-05-10T05:08:31.755Z,33.38
2019-05-10T05:11:02.013Z,33.67
2019-05-10T05:13:31.013Z,33.65
2019-05-10T05:16:00.043Z,36.93
2019-05-10T05:18:29.195Z,30.17
2019-05-10T05:20:58.258Z,32.05
2019-05-10T05:23:27.335Z,26.27
2019-05-10T05:25:56.364Z,26.07
2019-05-10T05:28:25.420Z,22.73
2019-05-10T05:30:54.495Z,18.05
2019-05-10T05:33:23.901Z,20.40
2019-05-10T05:35:53.309Z,17.17
2019-05-10T05:38:22.293Z,19.00
2019-05-10T05:40:51.615Z,18.30
2019-05-10T05:43:20.588Z,15.10
2019-05-10T05:45:49.554Z,16.85
2019-05-10T05:48:21.384Z,16.67
2019-05-10T05:50:49.274Z,16.30
2019-05-10T05:53:22.098Z,15.23
2019-05-10T05:55:48.912Z,18.20
2019-05-10T05:58:26.573Z,15.85
2019-05-10T06:00:48.587Z,18.80
2019-05-10T06:03:27.452Z,15.48
2019-05-10T06:05:48.294Z,16.17
2019-05-10T06:08:23.565Z,15.35
2019-05-10T06:10:56.085Z,15.78
2019-05-10T06:13:23.547Z,16.40
2019-05-10T06:15:49.303Z,18.02
2019-05-10T06:18:18.718Z,16.23
2019-05-10T06:20:47.772Z,17.52
2019-05-10T06:23:16.798Z,15.90
2019-05-10T06:25:45.801Z,17.62
2019-05-10T06:28:26.247Z,19.65
2019-05-10T06:30:45.960Z,17.40
2019-05-10T06:33:15.065Z,15.78
2019-05-10T06:35:44.137Z,20.30
2019-05-10T06:38:14.654Z,17.05
2019-05-10T06:40:47.389Z,18.80
2019-05-10T06:43:15.600Z,18.55
2019-05-10T06:45:46.677Z,17.42
2019-05-10T06:48:26.123Z,21.87
2019-05-10T06:50:46.353Z,25.52
2019-05-10T06:53:15.387Z,23.47
2019-05-10T06:55:44.525Z,30.02
2019-05-10T06:58:13.491Z,32.45
2019-05-10T07:00:45.080Z,31.45
2019-05-10T07:03:13.218Z,33.38
2019-05-10T07:05:42.207Z,32.17
2019-05-10T07:08:19.561Z,34.03
2019-05-10T07:10:42.366Z,28.87
2019-05-10T07:13:11.387Z,29.60
2019-05-10T07:15:42.283Z,39.90
2019-05-10T07:18:11.358Z,33.80
2019-05-10T07:20:43.198Z,38.30
2019-05-10T07:23:10.984Z,37.67
2019-05-10T07:25:43.731Z,37.88
2019-05-10T07:28:15.979Z,34.40
2019-05-10T07:30:41.969Z,34.60
2019-05-10T07:33:11.182Z,31.42
2019-05-10T07:35:40.241Z,33.90
2019-05-10T07:38:09.701Z,35.38
2019-05-10T07:40:38.726Z,32.98
2019-05-10T07:43:07.820Z,32.45
2019-05-10T07:45:36.781Z,40.03
2019-05-10T07:48:08.402Z,32.85
2019-05-10T07:50:42.640Z,35.95
2019-05-10T07:53:07.962Z,35.48
2019-05-10T07:55:37.363Z,35.83
2019-05-10T07:58:07.116Z,32.55
2019-05-10T08:00:38.049Z,35.17
2019-05-10T08:03:15.789Z,18.50
2019-05-10T08:05:39.106Z,14.15
2019-05-10T08:08:09.565Z,10.85
2019-05-10T08:10:39.381Z,11.65
2019-05-10T08:13:08.748Z,14.10
2019-05-10T08:15:38.525Z,28.62
2019-05-10T08:18:09.828Z,33.40
2019-05-10T08:20:49.633Z,27.35
2019-05-10T08:23:09.604Z,31.62
2019-05-10T08:25:43.981Z,25.68
2019-05-10T08:28:12.532Z,23.30
2019-05-10T08:30:52.036Z,27.60
2019-05-10T08:33:14.875Z,21.82
2019-05-10T08:35:46.506Z,13.20
2019-05-10T08:38:14.783Z,13.95
2019-05-10T08:40:43.746Z,12.90
2019-05-10T08:43:16.705Z,13.18
2019-05-10T08:45:49.053Z,12.82
2019-05-10T08:48:14.469Z,14.15
2019-05-10T08:50:50.792Z,12.58
2019-05-10T08:53:16.459Z,12.05
2019-05-10T08:55:44.868Z,13.43
2019-05-10T08:58:13.865Z,14.80
2019-05-10T09:00:53.786Z,13.32
2019-05-10T09:03:18.273Z,13.93
2019-05-10T09:05:44.408Z,14.30
2019-05-10T09:08:19.729Z,12.37
2019-05-10T09:10:44.093Z,10.13
2019-05-10T09:13:13.677Z,6.70
2019-05-10T09:15:51.471Z,5.80
2019-05-10T09:18:13.727Z,5.62
2019-05-10T09:20:42.755Z,5.12
2019-05-10T09:23:15.252Z,6.05
2019-05-10T09:25:42.803Z,5.20
2019-05-10T09:28:16.928Z,6.08
2019-05-10T09:30:56.823Z,6.65
2019-05-10T09:33:14.661Z,7.17
2019-05-10T09:35:47.532Z,4.95
2019-05-10T09:38:14.480Z,6.45
2019-05-10T09:40:51.299Z,5.55
2019-05-10T09:43:14.971Z,5.37
2019-05-10T09:45:44.215Z,4.85
2019-05-10T09:48:13.256Z,5.03
2019-05-10T09:50:46.928Z,4.47
2019-05-10T09:53:16.296Z,3.30
2019-05-10T09:55:45.519Z,5.05
2019-05-10T09:58:14.374Z,7.87
2019-05-10T10:00:43.335Z,3.92
2019-05-10T10:03:13.099Z,5.87
2019-05-10T10:05:42.334Z,6.40
2019-05-10T10:08:11.393Z,4.53
2019-05-10T10:10:40.628Z,4.45
2019-05-10T10:13:13.382Z,8.63
2019-05-10T10:15:40.675Z,7.87
2019-05-10T10:18:12.522Z,5.95
2019-05-10T10:20:45.027Z,5.05
2019-05-10T10:23:11.501Z,7.20
2019-05-10T10:25:42.127Z,6.08
2019-05-10T10:28:17.242Z,5.92
2019-05-10T10:30:41.838Z,6.45
2019-05-10T10:33:13.754Z,5.83
2019-05-10T10:35:41.563Z,7.75
2019-05-10T10:38:10.625Z,6.62
2019-05-10T10:40:44.761Z,6.95
2019-05-10T10:43:10.345Z,7.87
2019-05-10T10:45:39.386Z,7.28
2019-05-10T10:48:12.650Z,6.47
2019-05-10T10:50:44.503Z,7.45
2019-05-10T10:53:10.113Z,8.90
2019-05-10T10:55:40.261Z,10.45
2019-05-10T10:58:09.508Z,9.03
2019-05-10T11:00:39.243Z,10.48
2019-05-10T11:03:08.489Z,9.98
2019-05-10T11:05:37.454Z,12.70
2019-05-10T11:08:06.529Z,12.28
2019-05-10T11:10:35.503Z,12.82
2019-05-10T11:13:10.995Z,14.00
2019-05-10T11:15:36.622Z,15.25
2019-05-10T11:18:05.838Z,15.18
2019-05-10T11:20:34.812Z,18.55
2019-05-10T11:23:03.935Z,12.55
2019-05-10T11:25:32.978Z,13.05
2019-05-10T11:28:02.094Z,14.43
2019-05-10T11:30:32.527Z,14.45
2019-05-10T11:33:01.933Z,12.90
2019-05-10T11:35:34.324Z,13.38
2019-05-10T11:38:06.763Z,13.98
2019-05-10T11:40:35.141Z,12.18
2019-05-10T11:43:03.648Z,16.35
2019-05-10T11:45:35.301Z,12.63
2019-05-10T11:48:03.363Z,13.03
2019-05-10T11:50:35.309Z,14.75
2019-05-10T11:53:07.016Z,14.87
2019-05-10T11:55:37.823Z,11.83
2019-05-10T11:58:08.889Z,18.85
2019-05-10T12:00:36.635Z,12.65
2019-05-10T12:03:11.363Z,13.28
2019-05-10T12:05:36.439Z,9.55
2019-05-10T12:08:05.474Z,12.68
2019-05-10T12:10:34.440Z,14.35
2019-05-10T12:13:14.903Z,12.47
2019-05-10T12:15:34.152Z,9.75
2019-05-10T12:18:04.718Z,10.50
2019-05-10T12:23:05.312Z,8.93
2019-05-10T12:26:16.312Z,9.15
2019-05-10T12:26:20.050Z,12.00
2019-05-10T12:28:05.326Z,11.43
2019-05-10T12:30:34.857Z,11.50
2019-05-10T12:33:09.500Z,11.60
2019-05-10T12:35:40.701Z,11.93
2019-05-10T12:38:06.432Z,11.88
2019-05-10T12:40:35.476Z,10.03
2019-05-10T12:43:04.552Z,9.58
2019-05-10T12:45:33.576Z,10.63
2019-05-10T12:48:02.591Z,12.37
2019-05-10T12:50:31.634Z,11.00
2019-05-10T12:53:07.092Z,10.75
2019-05-10T12:55:31.301Z,9.93
2019-05-10T12:58:00.327Z,14.38
2019-05-10T13:00:29.396Z,11.40
2019-05-10T13:03:11.531Z,11.75
2019-05-10T13:05:31.985Z,12.68
2019-05-10T13:08:00.512Z,14.47
2019-05-10T13:10:29.651Z,15.18
2019-05-10T13:12:59.215Z,13.80
2019-05-10T13:15:31.083Z,15.60
2019-05-10T13:17:58.936Z,15.53
2019-05-10T13:20:30.749Z,14.90
2019-05-10T13:22:58.588Z,14.73
2019-05-10T13:25:27.568Z,15.38
2019-05-10T13:27:56.609Z,16.40
2019-05-10T13:30:27.991Z,13.93
2019-05-10T13:32:58.653Z,15.48
2019-05-10T13:35:27.340Z,13.78
2019-05-10T13:37:56.928Z,15.23
2019-05-10T13:40:27.073Z,14.05
2019-05-10T13:42:56.164Z,14.60
2019-05-10T13:45:25.223Z,15.20
2019-05-10T13:47:54.519Z,12.53
2019-05-10T13:50:23.839Z,13.30
2019-05-10T13:52:52.816Z,15.98
2019-05-10T13:55:21.921Z,14.40
2019-05-10T13:57:54.039Z,11.88
2019-05-10T14:00:22.043Z,14.80
2019-05-10T14:02:51.116Z,13.48
2019-05-10T14:05:20.128Z,14.00
2019-05-10T14:07:52.043Z,17.15
2019-05-10T14:10:23.392Z,12.80
2019-05-10T14:12:50.591Z,12.13
2019-05-10T14:15:19.735Z,13.00
2019-05-10T14:17:48.797Z,13.22
2019-05-10T14:20:24.544Z,16.65
2019-05-10T14:22:55.875Z,12.18
2019-05-10T14:25:19.715Z,12.33
2019-05-10T14:27:48.736Z,12.05
2019-05-10T14:30:18.022Z,11.33
2019-05-10T14:32:46.993Z,12.40
2019-05-10T14:35:21.721Z,12.98
2019-05-10T14:37:48.034Z,13.05
2019-05-10T14:40:27.594Z,14.70
2019-05-10T14:42:48.215Z,14.00
2019-05-10T14:45:17.275Z,15.13
2019-05-10T14:47:50.202Z,14.45
2019-05-10T14:50:19.684Z,13.22
2019-05-10T14:52:48.112Z,13.13
2019-05-10T14:55:17.082Z,13.53
2019-05-10T14:57:46.098Z,15.18
2019-05-10T15:00:15.413Z,14.45
2019-05-10T15:02:44.720Z,13.80
2019-05-10T15:05:16.341Z,15.13
2019-05-10T15:07:44.517Z,13.55
2019-05-10T15:10:13.608Z,15.95
2019-05-10T15:12:42.627Z,13.30
2019-05-10T15:15:11.758Z,12.70
2019-05-10T15:17:40.801Z,13.95
2019-05-10T15:20:09.928Z,13.32
2019-05-10T15:22:38.920Z,13.05
2019-05-10T15:25:08.310Z,14.28
2019-05-10T15:27:37.365Z,13.05
2019-05-10T15:30:09.302Z,12.70
2019-05-10T15:32:38.473Z,15.95
2019-05-10T15:35:08.821Z,14.78
2019-05-10T15:37:40.655Z,15.32
2019-05-10T15:40:09.609Z,14.47
2019-05-10T15:42:38.700Z,13.05
2019-05-10T15:45:14.442Z,14.20
2019-05-10T15:47:50.741Z,11.97
2019-05-10T15:50:11.350Z,12.95
2019-05-10T15:52:46.262Z,11.00
2019-05-10T15:55:11.404Z,12.90
2019-05-10T15:57:40.480Z,15.83
2019-05-10T16:00:11.227Z,13.13
2019-05-10T16:02:40.307Z,10.95
2019-05-10T16:05:24.002Z,12.15
2019-05-10T16:07:40.391Z,12.07
2019-05-10T16:10:09.521Z,11.43
2019-05-10T16:12:43.175Z,10.28
2019-05-10T16:15:13.678Z,11.60
2019-05-10T16:17:40.207Z,14.13
2019-05-10T16:20:09.737Z,14.75
2019-05-10T16:22:39.106Z,10.90
2019-05-10T16:25:08.540Z,13.55
2019-05-10T16:27:41.734Z,16.85
2019-05-10T16:30:12.113Z,16.35
2019-05-10T16:32:40.097Z,13.55
2019-05-10T16:35:12.660Z,16.65
2019-05-10T16:37:40.246Z,13.62
2019-05-10T16:40:10.052Z,15.13
2019-05-10T16:42:39.404Z,17.00
2019-05-10T16:45:09.924Z,21.93
2019-05-10T16:47:38.886Z,17.40
2019-05-10T16:50:08.563Z,19.92
2019-05-10T16:52:37.584Z,19.98
2019-05-10T16:55:09.634Z,18.35
2019-05-10T16:57:39.485Z,15.65
2019-05-10T17:00:10.870Z,14.23
2019-05-10T17:02:42.198Z,15.05
2019-05-10T17:05:15.299Z,15.85
2019-05-10T17:07:42.238Z,14.50
2019-05-10T17:10:11.414Z,16.48
2019-05-10T17:12:40.402Z,15.68
2019-05-10T17:15:09.801Z,14.25
2019-05-10T17:17:39.282Z,15.38
2019-05-10T17:20:14.037Z,12.78
2019-05-10T17:22:41.030Z,13.48
2019-05-10T17:25:10.347Z,15.88
2019-05-10T17:27:39.377Z,15.20
2019-05-10T17:30:08.723Z,14.43
2019-05-10T17:32:37.769Z,16.40
2019-05-10T17:35:08.439Z,15.30
2019-05-10T17:37:37.646Z,16.90
2019-05-10T17:40:10.047Z,17.23
2019-05-10T17:42:41.154Z,20.40
2019-05-10T17:45:10.009Z,17.48
2019-05-10T17:47:39.110Z,15.45
2019-05-10T17:50:08.963Z,14.53
2019-05-10T17:52:37.936Z,16.48
2019-05-10T17:55:11.092Z,15.88
2019-05-10T17:57:39.193Z,15.48
2019-05-10T18:00:09.566Z,17.30
2019-05-10T18:02:38.549Z,17.73
2019-05-10T18:05:08.370Z,16.82
2019-05-10T18:07:37.676Z,19.02
2019-05-10T18:10:07.678Z,19.62
2019-05-10T18:12:36.725Z,16.37
2019-05-10T18:15:09.394Z,18.50
2019-05-10T18:17:38.354Z,16.52
2019-05-10T18:20:07.993Z,16.95
2019-05-10T18:22:43.263Z,17.35
2019-05-10T18:25:19.429Z,16.67
2019-05-10T18:27:39.286Z,17.05
2019-05-10T18:30:09.099Z,17.32
2019-05-10T18:32:38.118Z,18.30
2019-05-10T18:35:14.769Z,21.65
2019-05-10T18:37:38.462Z,21.33
2019-05-10T18:40:08.284Z,20.88
2019-05-10T18:42:37.277Z,22.50
2019-05-10T18:45:07.833Z,21.27
2019-05-10T18:47:36.829Z,20.35
2019-05-10T18:50:06.693Z,20.27
2019-05-10T18:52:35.762Z,21.52
2019-05-10T18:55:06.073Z,20.75
2019-05-10T18:57:35.520Z,21.68
2019-05-10T19:00:06.052Z,19.30
2019-05-10T19:02:35.253Z,20.43
2019-05-10T19:05:06.558Z,25.97
2019-05-10T19:07:35.548Z,20.35
2019-05-10T19:10:06.849Z,22.13
2019-05-10T19:12:36.428Z,19.98
2019-05-10T19:15:10.022Z,19.82
2019-05-10T19:17:40.349Z,21.37
2019-05-10T19:20:15.951Z,22.50
2019-05-10T19:22:41.656Z,21.75
2019-05-10T19:25:13.941Z,22.80
2019-05-10T19:27:44.648Z,21.62
2019-05-10T19:30:12.895Z,22.70
2019-05-10T19:32:41.858Z,23.40
2019-05-10T19:35:11.056Z,22.90
2019-05-10T19:37:40.123Z,22.42
2019-05-10T19:40:09.693Z,23.10
2019-05-10T19:42:42.958Z,23.65
2019-05-10T19:45:12.970Z,22.35
2019-05-10T19:47:40.273Z,23.80
2019-05-10T19:50:09.533Z,23.55
2019-05-10T19:52:38.496Z,22.52
2019-05-10T19:55:07.653Z,22.58
2019-05-10T19:57:38.381Z,22.42
2019-05-10T20:00:09.826Z,23.35
2019-05-10T20:02:38.880Z,20.85
2019-05-10T20:05:08.151Z,21.57
2019-05-10T20:07:45.780Z,20.75
2019-05-10T20:10:09.230Z,20.92
2019-05-10T20:12:38.501Z,21.45
2019-05-10T20:15:07.707Z,21.30
2019-05-10T20:17:37.210Z,20.43
2019-05-10T20:20:08.002Z,20.08
2019-05-10T20:22:36.976Z,21.90
2019-05-10T20:25:07.771Z,22.10
2019-05-10T20:27:36.738Z,21.87
2019-05-10T20:30:07.962Z,21.57
2019-05-10T20:32:36.936Z,22.25
2019-05-10T20:35:08.076Z,22.50
2019-05-10T20:37:37.138Z,23.67
2019-05-10T20:40:07.245Z,24.82
2019-05-10T20:42:36.333Z,25.80
2019-05-10T20:45:08.079Z,26.00
2019-05-10T20:47:36.378Z,24.67
2019-05-10T20:50:06.400Z,22.82
2019-05-10T20:52:35.379Z,22.60
2019-05-10T20:55:06.203Z,23.38
2019-05-10T20:57:35.256Z,23.57
2019-05-10T21:00:05.953Z,27.02
2019-05-10T21:02:35.032Z,25.20
2019-05-10T21:05:07.672Z,23.02
2019-05-10T21:07:36.668Z,24.40
2019-05-10T21:10:06.556Z,21.60
2019-05-10T21:12:35.602Z,22.70
2019-05-10T21:15:06.760Z,22.37
2019-05-10T21:17:35.742Z,22.67
2019-05-10T21:20:07.237Z,19.98
2019-05-10T21:22:36.222Z,18.90
2019-05-10T21:25:07.683Z,19.50
2019-05-10T21:27:36.684Z,19.42
2019-05-10T21:30:06.859Z,19.17
2019-05-10T21:32:35.869Z,19.70
2019-05-10T21:35:05.265Z,17.57
2019-05-10T21:37:34.305Z,18.05
2019-05-10T21:40:04.064Z,24.50
2019-05-10T21:42:33.142Z,22.98
2019-05-10T21:45:02.220Z,19.35
2019-05-10T21:47:31.328Z,20.37
2019-05-10T21:50:00.388Z,20.60
2019-05-10T21:52:29.448Z,20.85
2019-05-10T21:54:58.428Z,20.00
2019-05-10T21:57:27.689Z,21.25
2019-05-10T21:59:56.651Z,22.67
2019-05-10T22:02:25.755Z,22.98
2019-05-10T22:04:55.292Z,21.05
2019-05-10T22:07:24.348Z,21.02
2019-05-10T22:09:53.415Z,21.37
2019-05-10T22:12:22.389Z,20.17
2019-05-10T22:14:51.357Z,20.95
2019-05-10T22:17:20.679Z,19.55
2019-05-10T22:19:49.706Z,22.42
2019-05-10T22:22:18.711Z,21.80
2019-05-10T22:24:47.674Z,19.30
2019-05-10T22:27:16.653Z,19.55
2019-05-10T22:29:45.899Z,18.55
2019-05-10T22:32:14.884Z,21.02
2019-05-10T22:34:43.929Z,21.42
2019-05-10T22:37:12.989Z,22.17
2019-05-10T22:39:42.041Z,22.10
2019-05-10T22:42:11.009Z,22.50
2019-05-10T22:44:39.978Z,20.32
2019-05-10T22:47:09.226Z,24.30
2019-05-10T22:49:38.299Z,20.25
2019-05-10T22:52:07.301Z,19.70
2019-05-10T22:54:36.257Z,23.15
2019-05-10T22:57:05.499Z,20.85
2019-05-10T22:59:34.751Z,22.50
2019-05-10T23:02:03.713Z,20.10
2019-05-10T23:04:32.721Z,21.10
2019-05-10T23:07:01.789Z,22.87
2019-05-10T23:09:30.731Z,23.22
2019-05-10T23:11:59.709Z,23.83
2019-05-10T23:14:28.695Z,22.52
2019-05-10T23:16:57.748Z,20.32
2019-05-10T23:19:26.759Z,22.93
2019-05-10T23:21:55.823Z,22.85
2019-05-10T23:24:26.453Z,21.82
2019-05-10T23:26:55.417Z,21.27
2019-05-10T23:29:24.417Z,23.73
2019-05-10T23:31:53.456Z,21.10
2019-05-10T23:34:22.495Z,21.55
2019-05-10T23:36:51.475Z,21.77
2019-05-10T23:39:20.461Z,23.25
2019-05-10T23:41:49.459Z,21.57
2019-05-10T23:44:18.507Z,23.67
2019-05-10T23:46:47.465Z,22.87
2019-05-10T23:49:16.465Z,22.58
2019-05-10T23:51:45.763Z,25.05
2019-05-10T23:54:14.763Z,22.17
2019-05-10T23:56:43.801Z,23.35
2019-05-10T23:59:12.847Z,23.47
